createdAt,value
2022-10-06T00:01:14.293Z,102026.09
2022-10-06T00:03:42.010Z,102041.97
2022-10-06T00:06:12.864Z,102043.72
2022-10-06T00:08:42.650Z,102047.25
2022-10-06T00:11:12.218Z,102053.44
2022-10-06T00:13:39.332Z,102060.50
2022-10-06T00:16:22.460Z,102055.19
2022-10-06T00:18:49.917Z,102062.22
2022-10-06T00:21:17.862Z,102066.63
2022-10-06T00:23:44.930Z,102080.72
2022-10-06T00:26:16.714Z,102079.81
2022-10-06T00:28:47.698Z,102091.28
2022-10-06T00:31:16.863Z,102087.72
2022-10-06T00:33:43.975Z,102092.94
2022-10-06T00:36:11.187Z,102098.25
2022-10-06T00:38:38.186Z,102097.34
2022-10-06T00:41:05.335Z,102100.00
2022-10-06T00:43:56.878Z,102107.03
2022-10-06T00:46:46.023Z,102107.00
2022-10-06T00:49:37.121Z,102104.34
2022-10-06T00:52:12.434Z,102114.00
2022-10-06T00:54:40.309Z,102116.66
2022-10-06T00:57:07.704Z,102126.34
2022-10-06T01:04:08.981Z,102122.75
2022-10-06T01:06:47.216Z,102124.44
2022-10-06T01:09:17.018Z,102127.06
2022-10-06T01:11:55.184Z,102132.34
2022-10-06T01:14:24.656Z,102133.19
2022-10-06T01:58:39.194Z,102210.25
2022-10-06T02:01:10.386Z,102212.97
2022-10-06T02:03:39.832Z,102214.69
2022-10-06T02:06:08.118Z,102203.19
2022-10-06T02:16:47.600Z,102225.13
2022-10-06T02:19:14.579Z,102225.97
2022-10-06T02:47:25.152Z,102272.03
2022-10-06T02:49:52.266Z,102271.97
2022-10-06T02:52:19.241Z,102267.53
2022-10-06T02:54:46.946Z,102275.44
2022-10-06T02:57:15.588Z,102276.16
2022-10-06T02:59:43.104Z,102288.47
2022-10-06T03:18:51.493Z,102310.09
2022-10-06T03:29:25.693Z,102344.28
2022-10-06T03:31:52.634Z,102339.00
2022-10-06T03:34:19.632Z,102341.56
2022-10-06T03:36:46.776Z,102343.38
2022-10-06T03:39:13.730Z,102345.16
2022-10-06T03:49:53.773Z,102357.09
2022-10-06T03:52:25.751Z,102356.22
2022-10-06T03:54:52.999Z,102365.00
2022-10-06T03:57:20.002Z,102368.53
2022-10-06T03:59:46.969Z,102371.94
2022-10-06T04:02:36.405Z,102378.97
2022-10-06T04:05:03.410Z,102377.22
2022-10-06T04:07:30.496Z,102393.13
2022-10-06T04:09:57.520Z,102392.97
2022-10-06T04:12:24.735Z,102399.16
2022-10-06T04:14:54.360Z,102402.69
2022-10-06T04:17:23.503Z,102404.44
2022-10-06T04:36:22.968Z,102421.53
2022-10-06T04:38:58.503Z,102421.47
2022-10-06T04:41:31.983Z,102433.78
2022-10-06T04:44:00.297Z,102432.00
2022-10-06T04:46:42.691Z,102433.72
2022-10-06T04:49:16.191Z,102443.38
2022-10-06T04:51:47.681Z,102439.81
2022-10-06T04:54:14.665Z,102445.94
2022-10-06T04:56:41.696Z,102449.44
2022-10-06T04:59:08.646Z,102451.19
2022-10-06T05:01:37.487Z,102454.38
2022-10-06T05:04:06.710Z,102457.69
2022-10-06T05:06:42.070Z,102462.88
2022-10-06T05:09:15.925Z,102470.09
2022-10-06T05:15:43.223Z,102483.03
2022-10-06T05:18:10.165Z,102490.97
2022-10-06T05:24:43.776Z,102495.19
2022-10-06T06:28:56.584Z,102580.56
2022-10-06T06:31:31.560Z,102578.00
2022-10-06T06:34:03.427Z,102571.84
2022-10-06T06:36:45.035Z,102582.56
2022-10-06T06:39:15.010Z,102578.28
2022-10-06T06:51:30.947Z,102605.13
2022-10-06T06:53:59.474Z,102604.28
2022-10-06T06:56:26.486Z,102612.38
2022-10-06T06:58:53.505Z,102608.94
2022-10-06T07:01:22.681Z,102629.28
2022-10-06T07:03:58.337Z,102633.84
2022-10-06T07:06:29.084Z,102639.16
2022-10-06T07:17:21.103Z,102660.00
2022-10-06T07:19:56.601Z,102654.94
2022-10-06T07:22:46.440Z,102662.16
2022-10-06T07:25:26.533Z,102662.38
2022-10-06T07:29:02.763Z,102667.03
2022-10-06T07:31:33.418Z,102676.81
2022-10-06T07:34:02.528Z,102679.63
2022-10-06T07:36:30.609Z,102683.25
2022-10-06T07:38:57.643Z,102687.84
2022-10-06T07:41:24.718Z,102686.19
2022-10-06T07:43:53.902Z,102684.59
2022-10-06T07:46:20.965Z,102690.06
2022-10-06T07:48:49.029Z,102695.50
2022-10-06T07:51:18.647Z,102703.56
2022-10-06T07:53:50.200Z,102711.75
2022-10-06T07:56:20.291Z,102713.69
2022-10-06T07:58:48.958Z,102725.19
2022-10-06T08:01:19.316Z,102718.25
2022-10-06T08:03:50.907Z,102720.19
2022-10-06T08:06:19.255Z,102723.88
2022-10-06T08:08:52.800Z,102721.38
2022-10-06T08:11:21.670Z,102726.72
2022-10-06T08:13:49.189Z,102728.66
2022-10-06T08:16:23.058Z,102726.19
2022-10-06T08:18:54.886Z,102728.97
2022-10-06T08:21:31.259Z,102738.00
2022-10-06T08:23:59.383Z,102745.13
2022-10-06T08:26:28.123Z,102744.38
2022-10-06T08:29:03.551Z,102763.09
2022-10-06T08:31:32.336Z,102756.09
2022-10-06T08:33:59.582Z,102752.69
2022-10-06T08:36:32.093Z,102752.84
2022-10-06T08:39:01.119Z,102760.91
2022-10-06T08:41:48.479Z,102765.41
2022-10-06T08:44:30.415Z,102770.81
2022-10-06T08:47:03.387Z,102766.50
2022-10-06T08:49:46.743Z,102763.97
2022-10-06T08:52:51.447Z,102779.91
2022-10-06T08:55:39.864Z,102774.78
2022-10-06T08:58:29.269Z,102787.22
2022-10-06T09:01:25.063Z,102787.31
2022-10-06T09:04:01.718Z,102785.63
2022-10-06T09:07:15.660Z,102786.66
2022-10-06T09:10:01.848Z,102784.97
2022-10-06T09:12:42.527Z,102793.81
2022-10-06T09:15:15.553Z,102802.72
2022-10-06T09:18:00.360Z,102798.34
2022-10-06T09:20:35.059Z,102802.03
2022-10-06T09:23:54.339Z,102806.53
2022-10-06T09:26:34.978Z,102811.00
2022-10-06T09:29:02.605Z,102817.25
2022-10-06T09:31:56.596Z,102810.25
2022-10-06T09:34:51.808Z,102827.16
2022-10-06T09:37:19.464Z,102827.25
2022-10-06T09:39:51.841Z,102829.91
2022-10-06T09:42:32.823Z,102830.88
2022-10-06T09:45:16.642Z,102833.63
2022-10-06T09:47:45.680Z,102846.13
2022-10-06T09:50:26.398Z,102831.97
2022-10-06T09:53:00.688Z,102834.50
2022-10-06T09:55:34.752Z,102839.88
2022-10-06T09:58:02.225Z,102844.38
2022-10-06T10:00:31.630Z,102841.78
2022-10-06T10:03:13.544Z,102838.31
2022-10-06T10:05:51.695Z,102843.59
2022-10-06T10:08:25.590Z,102840.97
2022-10-06T10:11:41.082Z,102841.00
2022-10-06T10:14:20.388Z,102841.91
2022-10-06T10:16:53.070Z,102833.09
2022-10-06T10:19:34.046Z,102840.25
2022-10-06T10:22:01.052Z,102842.97
2022-10-06T10:24:53.357Z,102859.88
2022-10-06T10:27:31.814Z,102844.81
2022-10-06T10:30:11.606Z,102855.41
2022-10-06T10:33:28.815Z,102861.66
2022-10-06T10:35:58.297Z,102846.59
2022-10-06T10:38:27.016Z,102853.69
2022-10-06T10:41:13.348Z,102873.22
2022-10-06T10:43:53.509Z,102865.22
2022-10-06T10:46:53.629Z,102862.66
2022-10-06T10:49:29.803Z,102862.66
2022-10-06T10:52:30.342Z,102874.22
2022-10-06T10:55:11.666Z,102860.91
2022-10-06T10:57:41.332Z,102868.00
2022-10-06T11:00:22.849Z,102863.59
2022-10-06T11:02:55.044Z,102855.66
2022-10-06T11:05:53.491Z,102859.22
2022-10-06T11:08:45.489Z,102853.03
2022-10-06T11:11:46.486Z,102851.31
2022-10-06T11:14:53.539Z,102865.50
2022-10-06T11:17:47.249Z,102854.88
2022-10-06T11:20:53.096Z,102862.84
2022-10-06T11:23:37.990Z,102864.66
2022-10-06T11:26:38.952Z,102870.84
2022-10-06T11:29:36.031Z,102867.34
2022-10-06T11:32:11.394Z,102867.34
2022-10-06T11:34:40.681Z,102861.13
2022-10-06T11:37:46.884Z,102870.03
2022-10-06T11:41:13.643Z,102870.91
2022-10-06T11:44:15.791Z,102865.56
2022-10-06T11:47:10.192Z,102857.56
2022-10-06T11:49:52.697Z,102857.59
2022-10-06T11:52:19.556Z,102856.72
2022-10-06T11:54:55.474Z,102852.31
2022-10-06T11:57:26.243Z,102846.09
2022-10-06T12:00:05.434Z,102854.94
2022-10-06T12:02:40.286Z,102861.19
2022-10-06T12:05:37.433Z,102852.28
2022-10-06T12:07:57.808Z,102858.53
2022-10-06T12:10:34.929Z,102854.06
2022-10-06T12:14:01.478Z,102851.41
2022-10-06T12:19:46.737Z,102843.44
2022-10-06T12:22:32.102Z,102843.44
2022-10-06T12:25:25.740Z,102850.53
2022-10-06T12:28:13.201Z,102846.09
2022-10-06T12:31:20.936Z,102838.09
2022-10-06T12:33:48.633Z,102833.63
2022-10-06T12:36:30.128Z,102826.56
2022-10-06T12:39:22.213Z,102828.31
2022-10-06T12:42:05.459Z,102837.19
2022-10-06T12:44:54.089Z,102834.53
2022-10-06T12:47:36.117Z,102838.09
2022-10-06T12:50:30.136Z,102834.53
2022-10-06T12:53:05.909Z,102834.53
2022-10-06T12:55:47.253Z,102826.50
2022-10-06T12:58:34.679Z,102830.09
2022-10-06T13:01:12.216Z,102831.84
2022-10-06T13:03:39.843Z,102819.41
2022-10-06T13:06:09.466Z,102830.06
2022-10-06T13:08:39.382Z,102822.97
2022-10-06T13:11:27.055Z,102830.97
2022-10-06T13:14:12.743Z,102833.63
2022-10-06T13:16:43.069Z,102825.63
2022-10-06T13:19:22.408Z,102822.94
2022-10-06T13:21:49.704Z,102830.97
2022-10-06T13:24:26.837Z,102831.84
2022-10-06T13:26:54.300Z,102825.63
2022-10-06T13:29:25.460Z,102818.53
2022-10-06T13:31:55.078Z,102820.28
2022-10-06T13:34:33.517Z,102825.63
2022-10-06T13:41:13.859Z,102817.63
2022-10-06T13:43:48.563Z,102818.53
2022-10-06T13:46:20.641Z,102815.88
2022-10-06T13:49:33.279Z,102825.63
2022-10-06T13:52:29.320Z,102818.50
2022-10-06T13:54:58.518Z,102814.09
2022-10-06T13:57:46.208Z,102821.19
2022-10-06T14:00:54.550Z,102820.28
2022-10-06T14:06:17.134Z,102814.97
2022-10-06T14:08:58.206Z,102825.63
2022-10-06T14:11:34.986Z,102820.28
2022-10-06T14:14:05.871Z,102821.19
2022-10-06T14:16:33.378Z,102832.75
2022-10-06T14:19:05.623Z,102835.41
2022-10-06T14:21:34.197Z,102826.53
2022-10-06T14:24:16.644Z,102834.53
2022-10-06T14:26:46.152Z,102827.44
2022-10-06T14:29:14.215Z,102827.41
2022-10-06T14:31:41.386Z,102827.44
2022-10-06T14:34:15.465Z,102828.31
2022-10-06T14:36:46.693Z,102816.78
2022-10-06T14:39:16.003Z,102830.97
2022-10-06T14:41:43.342Z,102822.13
2022-10-06T14:44:12.411Z,102819.44
2022-10-06T14:46:41.872Z,102809.66
2022-10-06T14:49:16.034Z,102810.56
2022-10-06T14:51:48.842Z,102808.78
2022-10-06T14:54:18.591Z,102805.22
2022-10-06T14:56:48.136Z,102807.00
2022-10-06T14:59:17.969Z,102806.13
2022-10-06T15:01:46.598Z,102807.00
2022-10-06T15:04:16.893Z,102800.81
2022-10-06T15:07:02.663Z,102801.63
2022-10-06T15:09:31.240Z,102798.09
2022-10-06T15:11:59.949Z,102803.44
2022-10-06T15:14:29.650Z,102800.75
2022-10-06T15:17:00.136Z,102797.22
2022-10-06T15:19:27.793Z,102803.41
2022-10-06T15:21:54.880Z,102798.94
2022-10-06T15:24:21.819Z,102794.53
2022-10-06T15:27:07.570Z,102795.41
2022-10-06T15:29:35.319Z,102790.97
2022-10-06T15:32:04.194Z,102783.88
2022-10-06T15:34:34.244Z,102787.41
2022-10-06T15:37:02.401Z,102786.50
2022-10-06T15:39:34.084Z,102781.16
2022-10-06T15:42:01.238Z,102779.41
2022-10-06T15:44:34.527Z,102772.31
2022-10-06T15:47:05.523Z,102777.59
2022-10-06T15:49:38.291Z,102780.28
2022-10-06T15:52:06.280Z,102784.69
2022-10-06T15:54:38.149Z,102774.91
2022-10-06T15:57:09.199Z,102773.13
2022-10-06T15:59:37.273Z,102778.44
2022-10-06T16:02:17.387Z,102768.66
2022-10-06T16:04:58.915Z,102772.22
2022-10-06T16:07:29.026Z,102776.63
2022-10-06T16:09:58.754Z,102777.44
2022-10-06T16:12:28.963Z,102775.63
2022-10-06T16:14:56.235Z,102777.34
2022-10-06T16:17:23.245Z,102778.22
2022-10-06T16:19:50.287Z,102767.53
2022-10-06T16:22:19.427Z,102768.31
2022-10-06T16:24:46.500Z,102771.84
2022-10-06T16:27:15.992Z,102770.03
2022-10-06T16:29:43.436Z,102774.41
2022-10-06T16:32:10.829Z,102768.97
2022-10-06T16:34:37.901Z,102769.78
2022-10-06T16:37:05.130Z,102773.19
2022-10-06T16:39:32.307Z,102766.00
2022-10-06T16:41:59.268Z,102761.44
2022-10-06T16:44:26.201Z,102768.44
2022-10-06T16:46:53.306Z,102760.31
2022-10-06T16:49:21.122Z,102762.84
2022-10-06T16:51:48.061Z,102751.19
2022-10-06T16:54:17.521Z,102758.16
2022-10-06T16:56:54.821Z,102753.59
2022-10-06T16:59:24.168Z,102756.06
2022-10-06T17:01:52.001Z,102754.13
2022-10-06T17:04:22.090Z,102749.53
2022-10-06T17:06:56.032Z,102748.50
2022-10-06T17:09:28.320Z,102750.19
2022-10-06T17:12:01.174Z,102750.03
2022-10-06T17:14:31.784Z,102750.69
2022-10-06T17:17:00.260Z,102742.63
2022-10-06T17:19:29.640Z,102741.53
2022-10-06T17:21:59.329Z,102743.19
2022-10-06T17:24:28.830Z,102742.13
2022-10-06T17:26:57.254Z,102742.00
2022-10-06T17:29:25.917Z,102742.75
2022-10-06T17:31:56.324Z,102742.63
2022-10-06T17:34:26.526Z,102748.56
2022-10-06T17:36:54.884Z,102737.69
2022-10-06T17:39:24.388Z,102735.75
2022-10-06T17:41:53.553Z,102734.75
2022-10-06T17:44:26.061Z,102730.19
2022-10-06T17:47:00.219Z,102733.47
2022-10-06T17:49:28.643Z,102732.66
2022-10-06T17:51:56.266Z,102733.38
2022-10-06T17:54:26.797Z,102733.19
2022-10-06T17:56:57.420Z,102731.41
2022-10-06T17:59:30.986Z,102733.06
2022-10-06T18:02:01.355Z,102739.16
2022-10-06T18:04:29.221Z,102732.91
2022-10-06T18:06:57.510Z,102735.44
2022-10-06T18:09:24.911Z,102733.56
2022-10-06T18:11:56.594Z,102739.50
2022-10-06T18:14:27.647Z,102735.91
2022-10-06T18:17:00.862Z,102733.22
2022-10-06T18:19:35.809Z,102727.06
2022-10-06T18:22:13.019Z,102728.75
2022-10-06T18:24:40.361Z,102726.00
2022-10-06T18:27:08.681Z,102732.94
2022-10-06T18:29:38.169Z,102735.50
2022-10-06T18:36:12.063Z,102731.75
2022-10-06T18:37:42.078Z,102730.53
2022-10-06T18:40:11.166Z,102720.03
2022-10-06T18:42:39.406Z,102733.97
2022-10-06T18:45:27.516Z,102724.16
2022-10-06T18:48:13.578Z,102721.41
2022-10-06T18:50:40.889Z,102722.16
2022-10-06T18:53:07.991Z,102724.72
2022-10-06T18:55:35.295Z,102726.41
2022-10-06T18:58:04.720Z,102725.47
2022-10-06T19:00:32.058Z,102721.03
2022-10-06T19:02:59.069Z,102724.41
2022-10-06T19:05:26.513Z,102718.13
2022-10-06T19:07:53.974Z,102717.16
2022-10-06T19:10:21.213Z,102717.13
2022-10-06T19:12:48.531Z,102717.91
2022-10-06T19:15:20.299Z,102720.47
2022-10-06T19:17:48.676Z,102731.78
2022-10-06T19:20:16.160Z,102722.91
2022-10-06T19:22:43.550Z,102737.84
2022-10-06T19:25:11.271Z,102731.41
2022-10-06T19:27:38.351Z,102720.75
2022-10-06T19:30:06.465Z,102723.53
2022-10-06T19:32:33.615Z,102725.16
2022-10-06T19:35:00.893Z,102728.56
2022-10-06T19:37:30.613Z,102718.88
2022-10-06T19:39:57.926Z,102720.66
2022-10-06T19:42:44.281Z,102719.72
2022-10-06T19:45:12.240Z,102724.13
2022-10-06T19:47:40.400Z,102724.19
2022-10-06T19:50:12.113Z,102721.38
2022-10-06T19:52:41.596Z,102724.00
2022-10-06T19:55:08.749Z,102715.25
2022-10-06T19:57:36.023Z,102724.84
2022-10-06T20:00:04.958Z,102722.22
2022-10-06T20:02:31.967Z,102719.59
2022-10-06T20:04:59.073Z,102723.97
2022-10-06T20:07:28.033Z,102719.41
2022-10-06T20:09:55.925Z,102726.41
2022-10-06T20:12:25.226Z,102737.84
2022-10-06T20:14:55.912Z,102729.00
2022-10-06T20:17:23.257Z,102733.38
2022-10-06T20:19:55.158Z,102725.41
2022-10-06T20:22:25.088Z,102728.03
2022-10-06T20:24:54.609Z,102726.22
2022-10-06T20:27:21.664Z,102732.34
2022-10-06T20:29:48.712Z,102726.13
2022-10-06T20:32:15.680Z,102724.16
2022-10-06T20:34:42.646Z,102726.66
2022-10-06T20:37:09.615Z,102728.38
2022-10-06T20:39:55.364Z,102729.09
2022-10-06T20:42:23.456Z,102730.72
2022-10-06T20:44:50.999Z,102735.06
2022-10-06T20:47:18.100Z,102737.59
2022-10-06T20:49:45.161Z,102733.09
2022-10-06T20:52:14.881Z,102732.22
2022-10-06T20:54:42.353Z,102729.53
2022-10-06T20:57:09.655Z,102727.78
2022-10-06T20:59:37.722Z,102726.16
2022-10-06T21:02:06.038Z,102725.31
2022-10-06T21:04:34.606Z,102718.06
2022-10-06T21:07:03.912Z,102724.03
2022-10-06T21:09:31.380Z,102720.41
2022-10-06T21:11:58.409Z,102709.94
2022-10-06T21:14:25.450Z,102711.72
2022-10-06T21:16:53.075Z,102708.81
2022-10-06T21:19:20.382Z,102697.38
2022-10-06T21:21:53.657Z,102702.50
2022-10-06T21:24:20.996Z,102702.44
2022-10-06T21:26:48.794Z,102704.03
2022-10-06T21:29:16.310Z,102703.09
2022-10-06T21:31:44.701Z,102702.97
2022-10-06T21:34:14.353Z,102702.03
2022-10-06T21:36:43.303Z,102703.88
2022-10-06T21:39:11.829Z,102698.53
2022-10-06T21:41:40.167Z,102697.59
2022-10-06T21:44:15.831Z,102691.41
2022-10-06T21:46:53.347Z,102690.47
2022-10-06T21:49:23.889Z,102692.22
2022-10-06T21:51:54.206Z,102688.59
2022-10-06T21:54:23.046Z,102676.31
2022-10-06T21:56:50.315Z,102667.44
2022-10-06T21:59:17.407Z,102672.66
2022-10-06T22:01:45.998Z,102667.31
2022-10-06T22:04:14.593Z,102674.31
2022-10-06T22:06:43.593Z,102677.81
2022-10-06T22:09:15.905Z,102676.81
2022-10-06T22:11:43.405Z,102675.09
2022-10-06T22:14:16.763Z,102677.72
2022-10-06T22:16:44.802Z,102673.31
2022-10-06T22:19:14.322Z,102668.94
2022-10-06T22:21:45.238Z,102669.81
2022-10-06T22:24:19.049Z,102676.81
2022-10-06T22:26:46.535Z,102673.25
2022-10-06T22:29:16.552Z,102663.50
2022-10-06T22:31:46.258Z,102661.72
2022-10-06T22:34:16.831Z,102654.78
2022-10-06T22:36:44.237Z,102656.59
2022-10-06T22:39:11.288Z,102656.59
2022-10-06T22:41:38.965Z,102656.50
2022-10-06T22:44:06.342Z,102653.06
2022-10-06T22:46:36.046Z,102652.22
2022-10-06T22:49:05.196Z,102653.13
2022-10-06T22:51:32.673Z,102641.69
2022-10-06T22:54:00.661Z,102647.81
2022-10-06T22:56:31.440Z,102645.94
2022-10-06T22:59:01.846Z,102647.81
2022-10-06T23:01:30.293Z,102638.94
2022-10-06T23:03:58.065Z,102638.19
2022-10-06T23:06:25.406Z,102630.22
2022-10-06T23:08:52.733Z,102625.19
2022-10-06T23:11:21.942Z,102621.81
2022-10-06T23:13:50.473Z,102621.69
2022-10-06T23:16:19.909Z,102616.41
2022-10-06T23:18:48.134Z,102617.94
2022-10-06T23:21:24.292Z,102617.88
2022-10-06T23:23:58.738Z,102613.50
2022-10-06T23:26:26.434Z,102619.59
2022-10-06T23:28:59.822Z,102611.63
2022-10-06T23:31:29.315Z,102603.81
2022-10-06T23:33:56.832Z,102602.00
2022-10-06T23:36:24.225Z,102603.59
2022-10-06T23:38:51.462Z,102600.97
2022-10-06T23:41:19.118Z,102600.91
2022-10-06T23:43:46.292Z,102597.41
2022-10-06T23:46:13.899Z,102594.72
2022-10-06T23:48:41.012Z,102596.47
2022-10-06T23:51:12.075Z,102591.09
2022-10-06T23:53:40.145Z,102591.94
2022-10-06T23:56:08.158Z,102588.38
2022-10-06T23:58:35.509Z,102587.41
